Time;durP1;ratioP1;P1;durP2;ratioP2;P2;SDS_P1;SDS_P2;PMS_P1;PMS_P2;Temp;Humidity;BMP_temperature;BMP_pressure;BME280_temperature;BME280_humidity;BME280_pressure;Samples;Min_cycle;Max_cycle;Signal;HPM_P1;HPM_P2
2021/10/31 00:01:25;;;;;;;12.73;7.30;;;;;;;1.48;80.97;96321.54;1772427;80;21011;-69
2021/10/31 00:03:52;;;;;;;11.53;7.13;;;;;;;1.48;80.86;96318.06;1772605;81;20991;-69
2021/10/31 00:06:20;;;;;;;15.80;7.70;;;;;;;1.42;80.59;96321.80;1765258;80;21010;-69
2021/10/31 00:08:48;;;;;;;15.03;7.73;;;;;;;1.42;80.93;96321.38;1773464;80;21019;-69
2021/10/31 00:11:17;;;;;;;11.77;7.37;;;;;;;1.43;80.79;96315.33;1771295;80;21017;-70
2021/10/31 00:13:44;;;;;;;10.50;7.37;;;;;;;1.47;81.08;96316.31;1778476;80;21034;-69
2021/10/31 00:16:11;;;;;;;9.10;5.00;;;;;;;1.43;80.93;96319.66;1778337;81;20987;-69
2021/10/31 00:18:38;;;;;;;7.27;4.97;;;;;;;1.30;80.87;96315.41;1771231;80;21535;-69
2021/10/31 00:21:05;;;;;;;9.20;6.30;;;;;;;1.22;81.30;96316.91;1766897;80;21017;-68
2021/10/31 00:23:31;;;;;;;13.43;7.30;;;;;;;1.11;81.77;96317.03;1765980;80;21102;-68
2021/10/31 00:25:58;;;;;;;12.67;6.57;;;;;;;1.15;81.96;96316.27;1772576;80;21010;-68
2021/10/31 00:28:25;;;;;;;13.93;7.40;;;;;;;1.15;82.03;96312.36;1765579;80;21085;-68
2021/10/31 00:30:53;;;;;;;13.87;7.63;;;;;;;1.27;82.19;96312.72;1773293;80;21024;-68
2021/10/31 00:33:20;;;;;;;11.93;6.97;;;;;;;1.39;82.04;96294.42;1766981;80;21005;-68
2021/10/31 00:35:47;;;;;;;15.00;6.93;;;;;;;1.46;81.85;96298.54;1771631;80;21540;-68
2021/10/31 00:38:14;;;;;;;10.93;7.00;;;;;;;1.50;81.84;96296.47;1773065;80;21018;-68
2021/10/31 00:40:41;;;;;;;12.17;6.37;;;;;;;1.41;81.35;96291.42;1770529;80;21043;-68
2021/10/31 00:43:08;;;;;;;9.80;6.30;;;;;;;1.28;80.83;96296.70;1778370;81;21070;-67
2021/10/31 00:45:35;;;;;;;10.90;6.27;;;;;;;1.26;81.27;96294.47;1775917;80;21020;-69
2021/10/31 00:48:01;;;;;;;12.10;6.33;;;;;;;1.37;81.90;96289.59;1776562;81;20995;-69
2021/10/31 00:50:28;;;;;;;9.43;4.30;;;;;;;1.38;81.19;96292.22;1772740;81;20998;-68
2021/10/31 00:52:56;;;;;;;12.67;5.10;;;;;;;1.24;81.17;96291.84;1775933;80;20995;-69
2021/10/31 00:55:23;;;;;;;8.87;4.43;;;;;;;1.10;80.60;96290.56;1768326;80;21041;-68
2021/10/31 00:57:50;;;;;;;11.53;7.20;;;;;;;0.95;81.58;96287.09;1774899;81;21011;-69
2021/10/31 01:00:17;;;;;;;13.23;6.70;;;;;;;0.96;81.86;96289.27;1743912;81;20987;-69
2021/10/31 01:02:44;;;;;;;13.40;7.00;;;;;;;1.01;82.08;96282.09;1776620;81;21018;-69
2021/10/31 01:05:16;;;;;;;11.97;7.40;;;;;;;1.03;82.59;96281.72;1772468;80;21066;-68
2021/10/31 01:08:25;;;;;;;9.00;5.90;;;;;;;1.08;82.57;96280.53;1777106;81;21503;-68
2021/10/31 01:11:06;;;;;;;10.43;5.73;;;;;;;1.09;82.05;96278.41;1771880;81;21038;-68
2021/10/31 01:14:22;;;;;;;9.67;6.03;;;;;;;0.98;81.49;96278.11;1718390;80;21019;-68
2021/10/31 01:17:27;;;;;;;9.57;5.63;;;;;;;0.86;81.92;96280.34;1777983;81;21034;-68
2021/10/31 01:20:36;;;;;;;11.10;6.30;;;;;;;0.80;82.43;96281.44;1766092;80;21014;-68
2021/10/31 01:23:29;;;;;;;7.23;4.10;;;;;;;0.77;82.58;96274.86;1769038;80;21126;-68
2021/10/31 01:26:19;;;;;;;8.93;5.73;;;;;;;0.85;82.57;96269.05;1769231;80;21015;-68
2021/10/31 01:29:16;;;;;;;11.07;6.30;;;;;;;0.79;82.77;96271.48;1768728;80;21018;-69
2021/10/31 01:32:10;;;;;;;11.77;6.53;;;;;;;0.79;82.13;96270.60;1757795;80;21066;-68
2021/10/31 01:34:51;;;;;;;10.10;6.03;;;;;;;0.86;82.57;96257.84;1776024;80;21083;-68
2021/10/31 01:37:36;;;;;;;11.87;5.87;;;;;;;0.93;82.78;96261.47;1768147;80;21547;-68
2021/10/31 01:40:18;;;;;;;9.60;6.47;;;;;;;0.96;82.46;96257.69;1769177;80;21087;-68
2021/10/31 01:43:16;;;;;;;11.87;7.13;;;;;;;0.92;81.96;96260.15;1771919;81;21002;-68
2021/10/31 01:46:17;;;;;;;11.97;7.03;;;;;;;0.92;81.95;96267.52;1773825;80;21052;-68
2021/10/31 01:48:51;;;;;;;10.23;6.17;;;;;;;0.77;81.60;96254.95;1767003;80;21498;-68
2021/10/31 01:51:26;;;;;;;8.73;5.23;;;;;;;0.71;81.77;96256.51;1765785;80;20988;-68
2021/10/31 01:54:07;;;;;;;8.97;5.77;;;;;;;0.68;81.88;96255.09;1778126;79;21576;-68
2021/10/31 01:56:36;;;;;;;11.13;5.50;;;;;;;0.68;81.83;96255.09;1774949;80;21025;-67
2021/10/31 01:59:10;;;;;;;9.50;5.73;;;;;;;0.75;82.23;96254.45;1751256;81;21022;-67
2021/10/31 02:01:41;;;;;;;9.37;5.57;;;;;;;0.73;82.10;96245.33;1777514;81;21109;-67
2021/10/31 02:04:11;;;;;;;7.30;4.90;;;;;;;0.67;81.46;96253.34;1767339;80;21025;-68
2021/10/31 02:06:46;;;;;;;10.93;5.97;;;;;;;0.66;81.89;96251.17;1773619;80;21552;-68
2021/10/31 02:09:17;;;;;;;10.33;5.93;;;;;;;0.69;81.96;96249.08;1764624;80;21507;-68
2021/10/31 02:11:46;;;;;;;10.13;5.30;;;;;;;0.75;81.85;96245.36;1768486;80;21547;-68
2021/10/31 02:14:14;;;;;;;7.27;5.27;;;;;;;0.75;81.99;96238.44;1769052;80;20993;-68
2021/10/31 02:16:43;;;;;;;9.43;5.07;;;;;;;0.75;81.90;96245.36;1779135;81;21019;-68
2021/10/31 02:19:15;;;;;;;8.27;5.00;;;;;;;0.75;82.30;96241.46;1773321;80;21030;-69
2021/10/31 02:21:42;;;;;;;6.33;4.40;;;;;;;0.66;81.97;96242.09;1765018;80;20994;-69
2021/10/31 02:24:10;;;;;;;8.47;5.30;;;;;;;0.56;81.36;96246.11;1744380;81;20994;-68
2021/10/31 02:26:38;;;;;;;11.40;4.83;;;;;;;0.49;81.66;96247.18;1764372;80;21013;-69
2021/10/31 02:29:08;;;;;;;8.90;5.23;;;;;;;0.55;82.21;96248.66;1774543;81;20983;-68
2021/10/31 02:31:37;;;;;;;7.17;4.70;;;;;;;0.56;82.41;96240.05;1774946;80;21023;-68
2021/10/31 02:34:06;;;;;;;11.10;5.13;;;;;;;0.57;82.37;96241.80;1768272;80;21089;-68
2021/10/31 02:36:34;;;;;;;10.30;5.57;;;;;;;0.56;82.06;96235.73;1771141;80;21052;-68
2021/10/31 02:39:04;;;;;;;7.90;4.53;;;;;;;0.66;82.41;96232.99;1770764;80;21038;-67
2021/10/31 02:41:32;;;;;;;5.47;3.30;;;;;;;0.64;81.81;96234.66;1771197;80;20993;-68
2021/10/31 02:43:59;;;;;;;9.67;5.63;;;;;;;0.53;81.90;96228.24;1771031;80;21497;-67
2021/10/31 02:46:31;;;;;;;8.53;5.27;;;;;;;0.46;81.99;96229.80;1771320;80;21066;-68
2021/10/31 02:48:59;;;;;;;9.60;5.33;;;;;;;0.49;82.74;96236.80;1778437;80;21524;-68
2021/10/31 02:51:39;;;;;;;10.37;5.90;;;;;;;0.60;83.07;96232.80;1769679;80;21009;-68
2021/10/31 02:54:43;;;;;;;10.93;5.80;;;;;;;0.62;82.85;96224.21;1761585;81;21026;-68
2021/10/31 02:57:33;;;;;;;7.83;4.85;;;;;;;0.61;82.63;96227.66;1778663;81;21128;-68
2021/10/31 03:00:06;;;;;;;8.00;4.73;;;;;;;0.55;82.48;96224.86;1767034;81;21072;-69
2021/10/31 03:02:34;;;;;;;9.40;4.95;;;;;;;0.53;82.59;96226.95;1776124;81;21066;-69
2021/10/31 03:05:01;;;;;;;7.03;4.53;;;;;;;0.52;82.41;96220.00;1777291;81;20995;-69
2021/10/31 03:07:28;;;;;;;8.00;4.63;;;;;;;0.47;81.84;96216.39;1777441;81;21011;-69
2021/10/31 03:09:55;;;;;;;6.87;4.13;;;;;;;0.36;81.95;96223.44;1776826;80;21031;-69
2021/10/31 03:12:21;;;;;;;7.90;4.13;;;;;;;0.26;82.14;96221.81;1772546;80;21147;-69
2021/10/31 03:14:49;;;;;;;6.13;3.97;;;;;;;0.17;82.02;96219.80;1765177;80;21588;-68
2021/10/31 03:17:16;;;;;;;7.80;4.33;;;;;;;0.14;82.21;96223.59;1769709;80;21005;-67
2021/10/31 03:19:43;;;;;;;7.20;4.23;;;;;;;0.11;82.47;96222.21;1771859;80;21019;-68
2021/10/31 03:22:09;;;;;;;8.13;4.80;;;;;;;0.11;82.74;96220.91;1771747;80;21005;-67
2021/10/31 03:24:36;;;;;;;7.27;4.50;;;;;;;0.15;82.75;96221.45;1770208;80;21091;-67
2021/10/31 03:27:04;;;;;;;10.80;5.37;;;;;;;0.26;82.89;96228.30;1767309;80;21028;-68
2021/10/31 03:29:31;;;;;;;7.10;4.30;;;;;;;0.35;83.12;96223.38;1764284;80;21010;-68
2021/10/31 03:31:58;;;;;;;9.47;5.57;;;;;;;0.39;82.76;96223.52;1765345;80;21049;-68
2021/10/31 03:34:25;;;;;;;7.23;5.00;;;;;;;0.32;82.23;96224.16;1765221;80;20987;-68
2021/10/31 03:36:52;;;;;;;9.93;4.30;;;;;;;0.31;82.17;96226.73;1768903;80;21053;-68
2021/10/31 03:39:19;;;;;;;8.43;4.57;;;;;;;0.36;82.59;96218.25;1767937;80;21074;-68
2021/10/31 03:41:46;;;;;;;6.77;4.53;;;;;;;0.47;82.87;96226.78;1770458;80;20980;-69
2021/10/31 03:44:15;;;;;;;7.17;4.37;;;;;;;0.55;82.78;96226.58;1775149;81;21073;-70
2021/10/31 03:46:43;;;;;;;7.73;4.37;;;;;;;0.59;82.67;96226.72;1774201;80;21021;-69
2021/10/31 03:49:09;;;;;;;8.77;4.30;;;;;;;0.57;81.93;96225.80;1763850;80;21060;-69
2021/10/31 03:51:36;;;;;;;6.60;4.37;;;;;;;0.45;81.44;96229.73;1765293;80;21041;-70
2021/10/31 03:54:03;;;;;;;8.40;4.77;;;;;;;0.36;81.40;96233.82;1771792;80;21524;-69
2021/10/31 03:56:30;;;;;;;9.47;4.77;;;;;;;0.33;81.87;96227.67;1778881;81;21022;-69
2021/10/31 03:58:57;;;;;;;8.13;5.00;;;;;;;0.39;82.41;96228.72;1769712;80;21028;-69
2021/10/31 04:01:24;;;;;;;7.77;4.20;;;;;;;0.35;81.95;96228.56;1768684;80;21004;-69
2021/10/31 04:03:50;;;;;;;7.10;4.40;;;;;;;0.30;82.02;96223.66;1767708;80;21165;-68
2021/10/31 04:06:17;;;;;;;7.20;4.13;;;;;;;0.32;82.13;96226.77;1769513;80;21037;-69
2021/10/31 04:08:44;;;;;;;5.93;3.60;;;;;;;0.36;82.09;96223.86;1770320;80;21046;-69
2021/10/31 04:11:10;;;;;;;5.83;3.73;;;;;;;0.42;82.11;96230.09;1766904;80;21058;-68
2021/10/31 04:13:37;;;;;;;6.13;4.03;;;;;;;0.33;81.34;96218.16;1766883;80;21564;-69
2021/10/31 04:16:04;;;;;;;9.77;4.37;;;;;;;0.34;81.74;96221.20;1764155;80;21028;-67
2021/10/31 04:18:31;;;;;;;4.97;3.43;;;;;;;0.36;81.76;96220.84;1773245;80;21034;-66
2021/10/31 04:20:58;;;;;;;9.80;4.10;;;;;;;0.36;81.65;96215.65;1775105;81;21067;-68
2021/10/31 04:23:26;;;;;;;6.13;3.90;;;;;;;0.35;81.72;96215.20;1774463;80;21044;-68
2021/10/31 04:25:54;;;;;;;5.77;3.77;;;;;;;0.28;81.38;96213.24;1770138;80;21088;-68
2021/10/31 04:28:20;;;;;;;26.10;13.83;;;;;;;0.24;81.62;96211.80;1772922;80;20999;-69
2021/10/31 04:30:47;;;;;;;12.97;9.37;;;;;;;0.03;81.46;96215.91;1772328;81;21009;-69
2021/10/31 04:33:13;;;;;;;7.23;4.07;;;;;;;-0.10;81.38;96213.30;1766726;80;21061;-69
2021/10/31 04:35:40;;;;;;;5.13;3.60;;;;;;;-0.15;81.31;96210.98;1766364;80;21031;-69
2021/10/31 04:38:14;;;;;;;5.20;3.43;;;;;;;-0.20;81.66;96213.84;1770517;80;21015;-68
2021/10/31 04:40:37;;;;;;;19.47;11.73;;;;;;;-0.30;82.00;96212.69;1771064;80;21103;-69
2021/10/31 04:43:03;;;;;;;9.37;5.43;;;;;;;-0.31;82.03;96214.38;1777056;81;21046;-69
2021/10/31 04:45:30;;;;;;;6.63;3.80;;;;;;;-0.27;82.49;96216.25;1774618;81;21542;-69
2021/10/31 04:47:56;;;;;;;6.53;4.03;;;;;;;-0.17;83.22;96214.84;1771382;80;21023;-69
2021/10/31 04:50:23;;;;;;;8.70;4.30;;;;;;;-0.10;83.16;96217.20;1771034;80;21479;-68
2021/10/31 04:52:50;;;;;;;7.13;4.03;;;;;;;-0.01;83.27;96220.97;1777354;80;21570;-68
2021/10/31 04:55:16;;;;;;;5.33;3.50;;;;;;;0.05;82.87;96215.52;1777733;80;20995;-68
2021/10/31 04:57:43;;;;;;;5.97;3.87;;;;;;;-0.03;82.21;96209.66;1775277;80;21081;-68
2021/10/31 05:00:11;;;;;;;12.67;10.20;;;;;;;-0.02;82.64;96215.34;1769720;80;21221;-68
2021/10/31 05:02:38;;;;;;;7.37;4.07;;;;;;;-0.07;82.14;96214.73;1777258;81;20998;-68
2021/10/31 05:05:06;;;;;;;6.37;3.90;;;;;;;-0.05;82.51;96211.73;1745520;81;21556;-68
2021/10/31 05:07:33;;;;;;;9.03;5.23;;;;;;;0.01;82.56;96208.48;1775679;81;21014;-69
2021/10/31 05:10:00;;;;;;;7.87;5.17;;;;;;;0.03;82.68;96211.59;1770005;80;21078;-68
2021/10/31 05:12:27;;;;;;;7.23;4.23;;;;;;;0.06;82.32;96217.30;1772147;80;21034;-69
2021/10/31 05:14:54;;;;;;;7.67;4.93;;;;;;;0.07;82.22;96214.73;1764614;80;20969;-68
2021/10/31 05:17:20;;;;;;;6.60;4.40;;;;;;;0.11;82.55;96210.53;1770596;80;21548;-68
2021/10/31 05:19:47;;;;;;;7.23;3.87;;;;;;;0.12;82.12;96212.28;1766366;80;21025;-68
2021/10/31 05:22:14;;;;;;;53.80;36.70;;;;;;;-0.02;81.32;96215.75;1768190;79;20986;-68
2021/10/31 05:24:40;;;;;;;9.57;5.97;;;;;;;-0.12;82.11;96221.06;1773908;81;21023;-69
2021/10/31 05:27:07;;;;;;;8.53;4.47;;;;;;;-0.15;81.71;96219.67;1765475;80;21167;-68
2021/10/31 05:29:34;;;;;;;10.90;4.70;;;;;;;-0.19;81.67;96224.70;1765303;80;21005;-68
2021/10/31 05:32:00;;;;;;;20.70;15.57;;;;;;;-0.19;82.21;96229.47;1765290;80;21033;-68
2021/10/31 05:34:28;;;;;;;17.97;12.37;;;;;;;-0.20;82.60;96233.30;1767777;80;21661;-69
2021/10/31 05:36:54;;;;;;;12.07;5.63;;;;;;;-0.16;82.74;96231.28;1767040;80;21540;-68
2021/10/31 05:39:21;;;;;;;6.67;3.73;;;;;;;-0.14;82.72;96227.03;1770545;80;20992;-68
2021/10/31 05:41:48;;;;;;;9.43;4.30;;;;;;;-0.10;82.57;96233.67;1772645;80;21529;-68
2021/10/31 05:44:14;;;;;;;7.90;5.23;;;;;;;-0.03;82.69;96236.02;1776250;80;21010;-68
2021/10/31 05:46:41;;;;;;;6.60;3.77;;;;;;;0.03;82.67;96224.98;1775658;81;21081;-68
2021/10/31 05:49:08;;;;;;;5.40;4.00;;;;;;;0.08;82.92;96233.80;1774621;81;21046;-69
2021/10/31 05:51:35;;;;;;;5.27;3.17;;;;;;;0.13;82.38;96244.78;1776474;81;21050;-69
2021/10/31 05:54:02;;;;;;;7.70;4.10;;;;;;;0.16;82.47;96233.62;1765917;80;21033;-69
2021/10/31 05:56:29;;;;;;;7.27;3.97;;;;;;;0.09;82.60;96234.25;1771579;81;21131;-69
2021/10/31 05:58:56;;;;;;;7.07;3.60;;;;;;;0.16;82.75;96229.30;1770316;81;21007;-69
2021/10/31 06:01:22;;;;;;;5.63;3.80;;;;;;;0.30;83.09;96234.91;1766793;80;21048;-69
2021/10/31 06:03:49;;;;;;;7.03;3.93;;;;;;;0.34;82.87;96228.98;1776886;81;21081;-69
2021/10/31 06:06:21;;;;;;;5.13;3.40;;;;;;;0.35;82.64;96236.36;1766420;80;21035;-69
2021/10/31 06:08:44;;;;;;;5.67;3.13;;;;;;;0.37;82.52;96238.59;1778262;81;21082;-68
2021/10/31 06:11:13;;;;;;;6.00;3.87;;;;;;;0.33;82.26;96237.63;1771984;80;21512;-68
2021/10/31 06:13:40;;;;;;;6.00;4.23;;;;;;;0.37;82.34;96232.09;1773970;80;21014;-68
2021/10/31 06:16:08;;;;;;;7.20;3.07;;;;;;;0.37;82.48;96233.39;1739271;80;21552;-68
2021/10/31 06:18:36;;;;;;;7.13;3.43;;;;;;;0.37;82.51;96232.97;1774016;80;21082;-69
2021/10/31 06:21:04;;;;;;;6.13;4.40;;;;;;;0.38;82.80;96238.65;1776997;81;21090;-68
2021/10/31 06:23:31;;;;;;;9.73;5.50;;;;;;;0.45;83.86;96237.10;1777249;81;21074;-68
2021/10/31 06:25:58;;;;;;;8.13;4.37;;;;;;;0.54;84.28;96240.41;1765608;80;21479;-68
2021/10/31 06:28:24;;;;;;;4.73;2.57;;;;;;;0.71;84.17;96240.92;1765470;80;21159;-69
2021/10/31 06:30:51;;;;;;;5.47;3.17;;;;;;;0.72;83.54;96243.98;1770771;80;21057;-68
2021/10/31 06:33:17;;;;;;;11.87;3.70;;;;;;;0.68;83.66;96242.11;1777808;80;21122;-68
2021/10/31 06:35:45;;;;;;;5.80;3.90;;;;;;;0.67;83.48;96239.94;1770700;80;21066;-68
2021/10/31 06:38:12;;;;;;;7.20;4.63;;;;;;;0.72;83.68;96243.55;1767908;80;21059;-69
2021/10/31 06:40:38;;;;;;;5.90;3.23;;;;;;;0.76;84.00;96245.41;1769065;80;21567;-69
2021/10/31 06:43:06;;;;;;;10.20;5.77;;;;;;;0.82;84.36;96246.00;1751803;81;21131;-69
2021/10/31 06:45:32;;;;;;;7.97;4.60;;;;;;;0.92;84.04;96244.56;1779499;80;21042;-68
2021/10/31 06:48:00;;;;;;;8.37;6.13;;;;;;;1.05;84.31;96237.14;1774788;81;21101;-69
2021/10/31 06:50:27;;;;;;;6.73;5.27;;;;;;;1.15;84.23;96242.61;1769049;81;20972;-68
2021/10/31 06:52:53;;;;;;;8.80;5.40;;;;;;;1.21;84.21;96243.67;1765361;80;21111;-68
2021/10/31 06:55:21;;;;;;;15.03;8.70;;;;;;;1.29;84.13;96239.56;1771453;80;21500;-68
2021/10/31 06:57:47;;;;;;;15.33;8.37;;;;;;;1.37;84.35;96233.27;1769258;80;20986;-68
2021/10/31 07:00:14;;;;;;;14.27;8.50;;;;;;;1.46;84.34;96237.82;1765949;80;21511;-68
2021/10/31 07:02:41;;;;;;;13.27;8.80;;;;;;;1.55;84.32;96236.77;1768930;80;21089;-67
2021/10/31 07:05:09;;;;;;;17.17;9.73;;;;;;;1.66;84.25;96226.25;1770671;80;21543;-68
2021/10/31 07:07:36;;;;;;;23.00;13.13;;;;;;;1.80;84.33;96227.88;1764355;80;21029;-68
2021/10/31 07:10:04;;;;;;;18.20;10.07;;;;;;;1.93;84.27;96231.25;1773047;81;21016;-68
2021/10/31 07:12:31;;;;;;;19.53;11.30;;;;;;;2.07;84.21;96229.43;1774153;80;21710;-69
2021/10/31 07:14:59;;;;;;;21.27;12.70;;;;;;;2.16;83.91;96229.63;1773355;80;21031;-68
2021/10/31 07:17:25;;;;;;;19.37;11.93;;;;;;;2.30;83.73;96229.55;1768022;80;21061;-68
2021/10/31 07:19:52;;;;;;;13.23;8.20;;;;;;;2.44;83.55;96235.48;1775969;80;20999;-69
2021/10/31 07:22:19;;;;;;;17.57;10.83;;;;;;;2.60;83.48;96229.80;1774770;80;21496;-69
2021/10/31 07:24:48;;;;;;;19.60;10.50;;;;;;;2.77;83.18;96231.45;1766051;80;21057;-69
2021/10/31 07:27:15;;;;;;;19.20;11.47;;;;;;;2.88;82.74;96227.80;1764405;80;21005;-69
2021/10/31 07:29:42;;;;;;;22.50;13.17;;;;;;;3.00;82.54;96228.92;1770881;80;21084;-69
2021/10/31 07:32:09;;;;;;;25.70;14.67;;;;;;;3.23;82.60;96225.91;1766193;80;21030;-69
2021/10/31 07:34:36;;;;;;;16.67;10.93;;;;;;;3.42;82.15;96226.70;1776437;81;21485;-69
2021/10/31 07:37:03;;;;;;;16.80;10.37;;;;;;;3.56;81.54;96228.71;1767873;80;21104;-69
2021/10/31 07:39:30;;;;;;;23.13;13.87;;;;;;;3.76;81.75;96216.90;1765364;80;21023;-69
2021/10/31 07:41:57;;;;;;;20.40;13.47;;;;;;;3.95;81.63;96218.08;1776865;81;21116;-68
2021/10/31 07:44:23;;;;;;;18.80;12.77;;;;;;;4.19;81.58;96212.83;1764588;80;21044;-68
2021/10/31 07:46:50;;;;;;;21.67;13.43;;;;;;;4.37;80.99;96210.50;1764063;80;21010;-69
2021/10/31 07:49:17;;;;;;;20.67;13.27;;;;;;;4.57;81.33;96203.39;1769343;81;21538;-67
2021/10/31 07:51:44;;;;;;;21.30;11.40;;;;;;;4.73;80.59;96204.04;1772450;80;21505;-68
2021/10/31 07:54:11;;;;;;;19.37;12.40;;;;;;;5.01;81.05;96205.71;1777113;81;21062;-69
2021/10/31 07:56:37;;;;;;;31.87;12.23;;;;;;;5.25;80.17;96202.53;1767884;80;21544;-67
2021/10/31 07:59:04;;;;;;;19.47;13.53;;;;;;;5.53;79.60;96199.79;1764102;80;21005;-68
2021/10/31 08:01:31;;;;;;;18.20;11.13;;;;;;;5.67;79.20;96186.42;1774808;80;21050;-68
2021/10/31 08:03:57;;;;;;;21.73;13.63;;;;;;;5.84;78.68;96185.25;1774667;81;21015;-68
2021/10/31 08:06:25;;;;;;;18.43;11.43;;;;;;;5.99;77.66;96180.62;1772079;80;21162;-69
2021/10/31 08:08:52;;;;;;;21.07;13.53;;;;;;;6.08;76.81;96177.22;1771911;80;21046;-69
2021/10/31 08:11:20;;;;;;;17.83;11.63;;;;;;;6.21;77.58;96182.98;1770500;80;21571;-67
2021/10/31 08:13:47;;;;;;;18.40;12.17;;;;;;;6.48;77.83;96181.87;1764056;80;21009;-67
2021/10/31 08:16:13;;;;;;;20.50;12.93;;;;;;;6.62;76.86;96177.14;1770074;80;21559;-67
2021/10/31 08:18:40;;;;;;;20.73;12.37;;;;;;;6.70;76.09;96169.78;1774711;81;20987;-66
2021/10/31 08:21:07;;;;;;;26.13;14.33;;;;;;;6.91;76.50;96166.39;1764201;80;20994;-67
2021/10/31 08:23:34;;;;;;;19.97;13.50;;;;;;;7.14;76.33;96165.17;1748732;81;21077;-66
2021/10/31 08:26:02;;;;;;;24.37;15.37;;;;;;;7.42;76.27;96156.08;1769523;81;21517;-66
2021/10/31 08:28:29;;;;;;;32.60;21.17;;;;;;;7.66;75.44;96147.39;1768994;80;20991;-65
2021/10/31 08:30:57;;;;;;;34.27;20.60;;;;;;;7.91;74.19;96146.98;1778157;80;22880;-66
2021/10/31 08:33:28;;;;;;;25.10;16.20;;;;;;;8.19;74.54;96149.17;1770565;80;21022;-65
2021/10/31 08:35:55;;;;;;;22.30;14.33;;;;;;;8.43;73.30;96143.47;1768763;80;21041;-66
2021/10/31 08:38:22;;;;;;;24.90;15.50;;;;;;;8.57;72.21;96137.76;1767584;80;21042;-66
2021/10/31 08:40:52;;;;;;;22.87;15.17;;;;;;;8.69;72.85;96136.83;1767546;79;21018;-65
2021/10/31 08:43:20;;;;;;;22.83;15.20;;;;;;;8.95;72.89;96137.22;1778340;81;21011;-65
2021/10/31 08:45:48;;;;;;;23.70;14.77;;;;;;;9.23;72.69;96124.36;1766050;80;21539;-65
2021/10/31 08:48:17;;;;;;;18.93;12.07;;;;;;;9.48;70.72;96120.29;1771805;80;21006;-65
2021/10/31 08:50:44;;;;;;;17.03;11.50;;;;;;;9.78;69.95;96124.48;1769023;80;21524;-66
2021/10/31 08:53:12;;;;;;;20.50;11.40;;;;;;;10.04;66.74;96122.09;1770528;80;21094;-66
2021/10/31 08:55:40;;;;;;;19.70;11.50;;;;;;;10.26;64.68;96121.02;1775490;81;21086;-66
2021/10/31 08:58:10;;;;;;;17.93;11.37;;;;;;;10.48;66.00;96118.20;1765449;80;21009;-66
2021/10/31 09:00:38;;;;;;;17.63;10.83;;;;;;;10.71;64.76;96115.32;1764027;80;21518;-67
2021/10/31 09:03:05;;;;;;;17.67;9.70;;;;;;;10.88;63.89;96109.41;1765373;80;21471;-66
2021/10/31 09:05:34;;;;;;;13.97;9.33;;;;;;;11.07;63.90;96102.16;1765183;80;21097;-67
2021/10/31 09:08:02;;;;;;;16.07;9.30;;;;;;;11.22;62.95;96104.61;1774692;81;20975;-64
2021/10/31 09:10:30;;;;;;;14.10;9.93;;;;;;;11.44;64.15;96097.70;1773607;80;21034;-67
2021/10/31 09:12:58;;;;;;;16.80;10.47;;;;;;;11.61;62.00;96096.14;1744346;81;21509;-67
2021/10/31 09:15:28;;;;;;;17.23;10.60;;;;;;;11.78;61.90;96096.77;1770326;80;21066;-66
2021/10/31 09:17:56;;;;;;;17.93;11.03;;;;;;;11.94;60.90;96095.23;1774819;81;21529;-66
2021/10/31 09:20:25;;;;;;;12.20;8.90;;;;;;;11.98;59.81;96086.37;1770337;80;21055;-66
2021/10/31 09:22:57;;;;;;;38.40;22.67;;;;;;;12.06;58.22;96085.33;1770311;81;21038;-66
2021/10/31 09:25:25;;;;;;;17.10;10.37;;;;;;;12.13;58.63;96080.37;1778697;80;21054;-65
2021/10/31 09:27:53;;;;;;;17.20;9.40;;;;;;;12.24;57.58;96083.28;1768127;80;21021;-66
2021/10/31 09:30:26;;;;;;;13.23;8.40;;;;;;;12.37;57.25;96078.19;1774036;80;21128;-67
2021/10/31 09:32:54;;;;;;;13.85;7.97;;;;;;;12.45;53.09;96076.30;1774230;80;21009;-67
2021/10/31 09:35:25;;;;;;;13.13;7.93;;;;;;;12.53;55.87;96062.47;1765275;81;21556;-67
2021/10/31 09:38:00;;;;;;;12.17;7.73;;;;;;;12.71;56.52;96066.98;1774843;80;21029;-68
2021/10/31 09:40:25;;;;;;;;;;;;;;;12.92;56.55;96059.92;1773066;81;21074;-69
2021/10/31 09:42:54;;;;;;;9.43;7.10;;;;;;;13.13;56.12;96054.66;1772248;80;20119;-68
2021/10/31 09:45:24;;;;;;;12.73;7.20;;;;;;;13.23;51.96;96043.84;1771137;80;21024;-68
2021/10/31 09:48:01;;;;;;;10.97;6.80;;;;;;;13.31;52.29;96049.44;1766918;80;21153;-68
2021/10/31 09:50:31;;;;;;;9.83;6.50;;;;;;;13.46;53.13;96046.04;1771273;80;21526;-69
2021/10/31 09:53:00;;;;;;;8.43;6.37;;;;;;;13.64;51.47;96046.94;1775049;80;21041;-68
2021/10/31 09:55:28;;;;;;;10.33;6.90;;;;;;;13.78;51.56;96040.86;1764286;80;21077;-69
2021/10/31 09:57:55;;;;;;;14.63;7.22;;;;;;;13.95;52.10;96044.87;1766752;80;21012;-69
2021/10/31 10:00:35;;;;;;;9.18;6.65;;;;;;;14.22;52.64;96037.55;1772736;79;21009;-68
2021/10/31 10:06:23;;;;;;;10.68;6.90;;;;;;;15.20;50.76;96026.02;1771636;80;21002;-68
2021/10/31 10:09:05;;;;;;;10.20;7.05;;;;;;;15.73;49.25;96020.86;1773209;80;21053;-66
2021/10/31 10:11:37;;;;;;;8.78;6.47;;;;;;;16.11;47.15;96013.41;1771023;80;21021;-65
2021/10/31 10:14:26;;;;;;;8.53;6.40;;;;;;;16.56;43.39;96012.74;1776664;81;21034;-66
2021/10/31 10:17:11;;;;;;;9.48;6.53;;;;;;;17.03;45.35;96002.62;1773178;81;21041;-65
2021/10/31 10:19:50;;;;;;;9.10;6.53;;;;;;;17.46;40.99;96003.65;1762916;79;21060;-65
2021/10/31 10:22:23;;;;;;;8.03;5.78;;;;;;;17.83;41.21;96001.76;1768162;80;21488;-66
2021/10/31 10:24:57;;;;;;;10.53;6.83;;;;;;;18.36;43.24;95995.11;1768235;80;21003;-66
2021/10/31 10:27:30;;;;;;;9.60;6.70;;;;;;;18.51;39.24;95987.77;1766425;80;21093;-65
2021/10/31 10:29:58;;;;;;;10.28;7.05;;;;;;;18.77;37.02;95984.44;1764237;80;21058;-66
2021/10/31 10:32:27;;;;;;;8.08;6.20;;;;;;;19.03;37.13;95986.82;1772136;80;21036;-66
2021/10/31 10:34:58;;;;;;;9.55;6.67;;;;;;;19.17;36.00;95983.49;1764441;80;21483;-66
2021/10/31 10:37:36;;;;;;;8.95;6.20;;;;;;;19.39;36.69;95976.67;1769995;80;21095;-66
2021/10/31 10:40:11;;;;;;;7.75;6.62;;;;;;;19.73;35.01;95971.54;1774296;80;21020;-66
2021/10/31 10:42:49;;;;;;;7.72;6.30;;;;;;;19.97;34.98;95973.02;1766296;80;21023;-67
2021/10/31 10:45:20;;;;;;;7.83;6.62;;;;;;;20.02;33.39;95966.10;1774289;81;21017;-66
2021/10/31 10:47:55;;;;;;;9.20;6.35;;;;;;;20.28;34.09;95968.31;1770910;80;21070;-66
2021/10/31 10:50:30;;;;;;;7.50;6.40;;;;;;;20.73;32.90;95960.69;1775442;80;21094;-66
2021/10/31 10:52:56;;;;;;;8.20;6.37;;;;;;;21.02;32.58;95961.83;1722046;81;21086;-66
2021/10/31 10:55:27;;;;;;;8.60;6.30;;;;;;;21.17;31.12;95957.45;1774529;81;21575;-66
2021/10/31 10:57:58;;;;;;;8.40;6.60;;;;;;;21.05;31.84;95966.16;1769514;80;21122;-66
2021/10/31 11:00:38;;;;;;;13.53;12.00;;;;;;;21.16;31.15;95964.61;1768644;80;21046;-66
2021/10/31 11:03:15;;;;;;;11.83;10.35;;;;;;;21.27;30.32;95952.41;1773347;81;21015;-66
2021/10/31 11:05:46;;;;;;;8.78;6.60;;;;;;;21.29;30.11;95949.17;1766475;80;21053;-66
2021/10/31 11:08:17;;;;;;;10.20;7.30;;;;;;;21.43;30.53;95951.14;1770248;80;21492;-66
2021/10/31 11:10:55;;;;;;;14.85;13.32;;;;;;;21.59;29.82;95947.48;1774731;81;21141;-67
2021/10/31 11:13:25;;;;;;;8.15;6.90;;;;;;;21.53;29.06;95944.30;1770302;80;21031;-66
2021/10/31 11:15:54;;;;;;;8.40;6.60;;;;;;;22.04;29.74;95933.70;1768872;80;21097;-67
2021/10/31 11:18:21;;;;;;;9.70;7.53;;;;;;;22.39;28.82;95929.93;1774145;81;21078;-66
2021/10/31 11:20:48;;;;;;;16.52;7.83;;;;;;;22.41;27.37;95923.50;1773317;81;21137;-66
2021/10/31 11:23:20;;;;;;;10.68;8.38;;;;;;;22.35;27.59;95918.96;1776938;81;21015;-67
2021/10/31 11:25:48;;;;;;;8.93;6.85;;;;;;;22.36;28.41;95917.54;1777322;81;21537;-66
2021/10/31 11:28:17;;;;;;;7.17;6.47;;;;;;;22.62;28.12;95916.43;1773530;80;21003;-67
2021/10/31 11:30:48;;;;;;;9.20;6.70;;;;;;;22.82;27.66;95911.17;1772128;80;21541;-68
2021/10/31 11:33:16;;;;;;;8.93;6.30;;;;;;;23.06;27.01;95912.85;1770920;80;21109;-69
2021/10/31 11:35:43;;;;;;;8.75;6.05;;;;;;;23.11;26.10;95904.86;1764252;80;21060;-69
2021/10/31 11:38:18;;;;;;;6.55;5.62;;;;;;;23.24;24.51;95908.13;1765470;80;21052;-68
2021/10/31 11:41:03;;;;;;;7.75;5.65;;;;;;;23.25;25.37;95903.97;1774328;80;21011;-68
2021/10/31 11:43:35;;;;;;;9.25;6.12;;;;;;;23.38;25.46;95893.77;1769195;80;21107;-68
2021/10/31 11:46:04;;;;;;;7.90;5.67;;;;;;;23.64;24.87;95896.12;1768830;80;21019;-68
2021/10/31 11:48:35;;;;;;;6.95;5.95;;;;;;;23.73;24.94;95890.14;1769255;80;21081;-68
2021/10/31 11:51:08;;;;;;;6.85;5.53;;;;;;;24.03;25.54;95891.77;1772463;80;21014;-69